Time;durP1;ratioP1;P1;durP2;ratioP2;P2;SDS_P1;SDS_P2;PMS_P1;PMS_P2;Temp;Humidity;BMP_temperature;BMP_pressure;BME280_temperature;BME280_humidity;BME280_pressure;Samples;Min_cycle;Max_cycle;Signal;HPM_P1;HPM_P2
2021/12/08 00:00:39;;;;;;;7.78;2.60;;;;;;;1.69;88.69;98361.94;4996937;28;20037;-84
2021/12/08 00:03:07;;;;;;;6.47;1.80;;;;;;;1.69;88.01;98361.06;4998429;28;20030;-84
2021/12/08 00:05:33;;;;;;;9.43;2.67;;;;;;;1.73;88.41;98349.56;4998659;28;20318;-83
2021/12/08 00:08:00;;;;;;;7.07;1.90;;;;;;;1.70;88.37;98344.41;4998391;28;20053;-83
2021/12/08 00:13:05;;;;;;;5.97;2.10;;;;;;;1.71;88.70;98335.56;4999248;28;20030;-83
2021/12/08 00:15:36;;;;;;;6.13;2.03;;;;;;;1.66;87.89;98333.94;4997399;28;20105;-84
2021/12/08 00:18:04;;;;;;;6.38;1.88;;;;;;;1.73;87.83;98337.28;4997794;28;20513;-85
2021/12/08 00:20:32;;;;;;;3.67;1.95;;;;;;;1.71;88.15;98325.91;4998982;28;20036;-84
2021/12/08 00:22:57;;;;;;;5.35;1.90;;;;;;;1.77;87.35;98322.28;4997748;28;20368;-83
2021/12/08 00:25:22;;;;;;;5.22;1.40;;;;;;;1.77;87.91;98310.00;4998936;28;20022;-83
2021/12/08 00:27:48;;;;;;;5.90;1.60;;;;;;;1.88;86.77;98309.69;4996979;28;20060;-84
2021/12/08 00:30:15;;;;;;;6.53;1.52;;;;;;;1.92;85.95;98297.31;4996584;28;20165;-84
2021/12/08 00:32:40;;;;;;;5.35;1.60;;;;;;;1.97;85.27;98281.41;4996953;28;20508;-84
2021/12/08 00:35:06;;;;;;;5.50;1.30;;;;;;;1.95;85.81;98281.44;4997613;28;20030;-84
2021/12/08 00:37:32;;;;;;;6.28;1.60;;;;;;;1.98;85.69;98269.97;4997544;28;20025;-83
2021/12/08 00:39:58;;;;;;;5.43;1.63;;;;;;;1.94;86.88;98263.03;4996696;28;20022;-83
2021/12/08 00:42:24;;;;;;;6.38;1.80;;;;;;;1.91;87.56;98242.09;5002669;28;20037;-83
2021/12/08 00:44:49;;;;;;;5.50;1.88;;;;;;;1.79;89.55;98254.66;5001156;28;20026;-83
2021/12/08 00:47:15;;;;;;;6.25;2.22;;;;;;;1.58;92.59;98241.19;5002823;28;20444;-83
2021/12/08 00:49:41;;;;;;;6.75;1.70;;;;;;;1.47;95.09;98244.09;5004365;28;20057;-83
2021/12/08 00:52:07;;;;;;;4.47;1.75;;;;;;;1.31;96.59;98238.38;5002427;28;20022;-83
2021/12/08 00:54:33;;;;;;;6.15;1.60;;;;;;;1.20;97.98;98231.63;5003783;28;20026;-86
2021/12/08 00:56:58;;;;;;;5.22;1.77;;;;;;;1.26;96.73;98225.34;5002475;28;20022;-82
2021/12/08 00:59:24;;;;;;;9.55;2.60;;;;;;;1.24;97.56;98227.13;5000009;28;20026;-84
2021/12/08 01:01:49;;;;;;;7.03;1.65;;;;;;;1.22;97.11;98221.91;5001107;28;20107;-83
2021/12/08 01:04:15;;;;;;;5.20;1.77;;;;;;;1.36;95.26;98220.72;5000033;28;20038;-83
2021/12/08 01:06:41;;;;;;;7.03;1.88;;;;;;;1.43;94.48;98203.00;4997036;28;20122;-84
2021/12/08 01:09:07;;;;;;;5.05;1.83;;;;;;;1.36;96.17;98198.81;4995492;28;20022;-84
2021/12/08 01:11:32;;;;;;;6.15;1.73;;;;;;;1.17;97.79;98191.38;4996396;28;20064;-82
2021/12/08 01:13:57;;;;;;;5.50;1.63;;;;;;;0.99;100.00;98181.28;4997504;28;20102;-84
2021/12/08 01:16:23;;;;;;;4.72;1.65;;;;;;;0.92;100.00;98182.34;4996795;28;20034;-83
2021/12/08 01:18:48;;;;;;;6.70;2.13;;;;;;;0.87;100.00;98192.13;4999352;28;20030;-83
2021/12/08 01:21:14;;;;;;;5.50;1.73;;;;;;;0.89;100.00;98187.69;5000332;28;20075;-84
2021/12/08 01:23:40;;;;;;;3.92;1.40;;;;;;;0.89;100.00;98185.06;5001310;28;20034;-83
2021/12/08 01:26:07;;;;;;;4.65;1.73;;;;;;;0.87;100.00;98177.22;5000354;28;20014;-83
2021/12/08 01:28:32;;;;;;;5.55;2.05;;;;;;;0.84;100.00;98176.41;5002165;28;20026;-84
2021/12/08 01:31:00;;;;;;;6.75;2.17;;;;;;;0.71;100.00;98163.56;5002493;28;20022;-82
2021/12/08 01:33:27;;;;;;;7.05;2.00;;;;;;;0.58;100.00;98177.91;5000441;28;20028;-82
2021/12/08 01:35:53;;;;;;;7.40;1.73;;;;;;;0.49;100.00;98182.44;4998441;28;20060;-83
2021/12/08 01:38:19;;;;;;;6.50;2.03;;;;;;;0.46;100.00;98177.28;4999730;28;20377;-83
2021/12/08 01:40:45;;;;;;;4.93;1.85;;;;;;;0.53;100.00;98175.38;4998021;28;20022;-83
2021/12/08 01:43:23;;;;;;;3.67;1.60;;;;;;;0.53;100.00;98176.25;4995133;28;20476;-83
2021/12/08 01:46:00;;;;;;;7.55;1.90;;;;;;;0.55;100.00;98171.81;4996057;28;20022;-83
2021/12/08 01:48:29;;;;;;;4.55;1.85;;;;;;;0.58;100.00;98170.00;4997247;28;20487;-82
2021/12/08 01:50:59;;;;;;;6.65;1.73;;;;;;;0.58;100.00;98176.13;4998786;28;20026;-84
2021/12/08 01:53:24;;;;;;;6.05;2.15;;;;;;;0.62;100.00;98169.06;4999415;28;20482;-82
2021/12/08 01:55:50;;;;;;;5.53;2.22;;;;;;;0.65;100.00;98179.47;4997915;28;20114;-83
2021/12/08 01:58:16;;;;;;;5.90;2.03;;;;;;;0.65;100.00;98171.59;4998010;28;20030;-83
2021/12/08 02:00:52;;;;;;;6.00;2.40;;;;;;;0.65;100.00;98172.47;4997775;28;20097;-82
2021/12/08 02:03:19;;;;;;;8.25;2.70;;;;;;;0.68;100.00;98176.78;4999069;28;20026;-83
2021/12/08 02:05:45;;;;;;;6.60;2.70;;;;;;;0.66;100.00;98175.97;4999266;28;20363;-82
2021/12/08 02:08:11;;;;;;;6.78;2.72;;;;;;;0.71;100.00;98171.47;4998259;28;20397;-83
2021/12/08 02:10:38;;;;;;;7.82;2.80;;;;;;;0.71;100.00;98165.34;4997828;28;20105;-83
2021/12/08 02:13:04;;;;;;;8.25;2.75;;;;;;;0.73;100.00;98167.03;4997289;28;20211;-82
2021/12/08 02:15:30;;;;;;;5.90;2.53;;;;;;;0.71;100.00;98160.94;4999628;28;20030;-83
2021/12/08 02:17:56;;;;;;;5.80;2.53;;;;;;;0.74;100.00;98160.88;4997374;28;20026;-83
2021/12/08 02:20:25;;;;;;;6.03;2.15;;;;;;;0.78;100.00;98157.28;4994782;28;20026;-83
2021/12/08 02:22:51;;;;;;;11.68;3.88;;;;;;;0.76;100.00;98159.06;4995930;28;20383;-83
2021/12/08 02:25:20;;;;;;;5.45;2.42;;;;;;;0.83;100.00;98159.78;4997159;28;20398;-82
2021/12/08 02:27:46;;;;;;;5.30;2.40;;;;;;;0.87;100.00;98163.22;4998417;28;20022;-84
2021/12/08 02:30:36;;;;;;;9.38;2.50;;;;;;;0.98;100.00;98168.22;4998907;28;20037;-83
2021/12/08 02:49:29;;;;;;;7.57;3.13;;;;;;;1.21;100.00;98141.28;4999438;28;20030;-83
2021/12/08 02:51:55;;;;;;;5.15;2.53;;;;;;;1.22;100.00;98144.78;4998749;28;20034;-84
2021/12/08 02:54:20;;;;;;;5.57;2.72;;;;;;;1.26;100.00;98132.44;4998174;28;20030;-85
2021/12/08 02:56:46;;;;;;;7.20;2.97;;;;;;;1.28;100.00;98138.53;4995787;28;20026;-84
2021/12/08 02:59:12;;;;;;;5.88;2.60;;;;;;;1.26;100.00;98138.56;4996607;28;20022;-84
2021/12/08 03:01:38;;;;;;;6.60;2.70;;;;;;;1.28;100.00;98142.03;4997604;28;20023;-83
2021/12/08 03:04:07;;;;;;;9.02;2.70;;;;;;;1.30;100.00;98126.19;4997157;28;20046;-85
2021/12/08 03:06:33;;;;;;;5.85;2.78;;;;;;;1.34;100.00;98133.94;4998868;28;20101;-84
2021/12/08 03:08:58;;;;;;;5.07;2.45;;;;;;;1.36;100.00;98135.69;4999230;28;20479;-84
2021/12/08 03:11:24;;;;;;;4.88;2.13;;;;;;;1.34;100.00;98133.09;5001727;28;20065;-85
2021/12/08 03:14:04;;;;;;;8.75;2.50;;;;;;;1.31;100.00;98148.97;5001532;28;20029;-84
2021/12/08 03:16:29;;;;;;;6.07;2.13;;;;;;;1.37;100.00;98148.78;5000350;28;20121;-85
2021/12/08 03:18:55;;;;;;;4.53;2.05;;;;;;;1.36;100.00;98141.81;5001705;28;20101;-84
2021/12/08 03:21:28;;;;;;;5.65;2.45;;;;;;;1.37;100.00;98140.88;5001138;28;20026;-83
2021/12/08 03:24:38;;;;;;;3.83;1.73;;;;;;;1.42;100.00;98146.88;5001105;28;20030;-83
2021/12/08 03:27:09;;;;;;;4.88;2.50;;;;;;;1.45;100.00;98145.94;4998272;28;20034;-85
2021/12/08 03:29:41;;;;;;;6.60;2.50;;;;;;;1.43;100.00;98148.63;5003202;28;20034;-85
2021/12/08 03:32:15;;;;;;;7.10;3.00;;;;;;;1.41;100.00;98145.19;4997954;28;20029;-85
2021/12/08 03:34:50;;;;;;;4.82;1.98;;;;;;;1.45;100.00;98138.06;4999346;28;20057;-84
2021/12/08 03:37:17;;;;;;;3.78;2.10;;;;;;;1.43;100.00;98146.00;5001564;28;20026;-85
2021/12/08 03:39:43;;;;;;;4.22;2.33;;;;;;;1.43;100.00;98148.63;5003979;28;20030;-84
2021/12/08 03:42:09;;;;;;;4.95;2.63;;;;;;;1.41;100.00;98145.19;5003751;28;20030;-84
2021/12/08 03:44:35;;;;;;;5.93;2.65;;;;;;;1.38;100.00;98145.25;5004848;28;20398;-84
2021/12/08 03:47:04;;;;;;;4.13;2.05;;;;;;;1.36;100.00;98151.47;5002761;28;20478;-85
2021/12/08 03:49:32;;;;;;;5.88;2.50;;;;;;;1.36;100.00;98141.81;5003181;28;20022;-84
2021/12/08 03:52:03;;;;;;;5.13;2.75;;;;;;;1.41;100.00;98150.44;5003941;28;20029;-84
2021/12/08 03:54:28;;;;;;;3.85;2.45;;;;;;;1.42;100.00;98141.63;5003004;28;20030;-84
2021/12/08 03:56:57;;;;;;;5.53;2.20;;;;;;;1.47;100.00;98148.56;5001448;28;20033;-84
2021/12/08 03:59:22;;;;;;;5.15;2.40;;;;;;;1.49;100.00;98159.88;5000438;28;20030;-84
2021/12/08 04:01:48;;;;;;;6.13;2.30;;;;;;;1.49;100.00;98152.00;5002119;28;20033;-84
2021/12/08 04:04:14;;;;;;;5.70;1.95;;;;;;;1.49;100.00;98157.25;5000106;28;20038;-84
2021/12/08 04:06:46;;;;;;;2.63;1.90;;;;;;;1.53;100.00;98158.88;4999672;28;20022;-85
2021/12/08 04:09:19;;;;;;;6.40;1.95;;;;;;;1.55;100.00;98154.44;4998206;28;20029;-84
2021/12/08 04:11:46;;;;;;;3.13;1.52;;;;;;;1.60;100.00;98155.19;4998282;28;20026;-83
2021/12/08 04:14:15;;;;;;;3.65;1.60;;;;;;;1.59;100.00;98153.47;4999907;28;20113;-83
2021/12/08 04:16:52;;;;;;;4.10;1.88;;;;;;;1.61;100.00;98153.41;5000133;28;20030;-83
2021/12/08 04:19:18;;;;;;;3.22;1.60;;;;;;;1.62;100.00;98149.88;5002765;28;20057;-85
2021/12/08 04:21:46;;;;;;;4.03;1.80;;;;;;;1.62;100.00;98161.28;5001819;28;20710;-83
2021/12/08 04:24:13;;;;;;;4.55;1.90;;;;;;;1.67;100.00;98167.28;5001356;28;20487;-83
2021/12/08 04:26:52;;;;;;;3.50;1.50;;;;;;;1.68;100.00;98152.34;5000912;28;20022;-83
2021/12/08 04:29:23;;;;;;;4.07;1.52;;;;;;;1.71;100.00;98172.44;5002096;28;20030;-84
2021/12/08 04:31:50;;;;;;;2.53;1.30;;;;;;;1.73;100.00;98175.88;5003939;28;20120;-84
2021/12/08 04:34:26;;;;;;;5.22;1.42;;;;;;;1.79;100.00;98170.47;5004449;28;20034;-84
2021/12/08 04:36:54;;;;;;;2.97;1.58;;;;;;;1.80;100.00;98174.81;5008815;28;20053;-85
2021/12/08 04:39:48;;;;;;;2.47;1.27;;;;;;;1.79;100.00;98175.72;5009583;28;20026;-86
2021/12/08 04:42:18;;;;;;;3.03;1.17;;;;;;;1.81;100.00;98173.03;5007681;28;20085;-83
2021/12/08 04:44:52;;;;;;;2.75;1.17;;;;;;;1.83;99.61;98184.41;4998324;28;20030;-85
2021/12/08 04:47:30;;;;;;;2.58;1.17;;;;;;;1.82;100.00;98183.53;4999427;28;20483;-83
2021/12/08 05:04:05;;;;;;;3.17;1.40;;;;;;;1.75;100.00;98179.34;5007198;28;20026;-84
2021/12/08 05:06:49;;;;;;;1.90;1.00;;;;;;;1.76;100.00;98181.06;5007461;28;20030;-84
2021/12/08 05:09:19;;;;;;;2.30;1.40;;;;;;;1.74;100.00;98164.47;5006548;28;20535;-83
2021/12/08 05:11:50;;;;;;;1.55;1.02;;;;;;;1.77;100.00;98167.00;5005804;28;20022;-83
2021/12/08 05:14:24;;;;;;;1.73;1.10;;;;;;;1.76;100.00;98181.06;5005862;28;20026;-84
2021/12/08 05:16:53;;;;;;;3.60;1.17;;;;;;;1.83;100.00;98190.50;5005536;28;20086;-84
2021/12/08 05:19:22;;;;;;;2.20;1.20;;;;;;;1.77;100.00;98188.06;5003881;28;20085;-84
2021/12/08 05:21:53;;;;;;;3.75;1.38;;;;;;;1.71;100.00;98185.59;4996290;28;20487;-82
2021/12/08 05:24:25;;;;;;;2.22;1.40;;;;;;;1.65;100.00;98187.47;4997762;28;20475;-83
2021/12/08 05:26:58;;;;;;;2.20;1.50;;;;;;;1.64;100.00;98182.28;4998215;28;20037;-83
2021/12/08 05:29:53;;;;;;;2.50;1.27;;;;;;;1.63;100.00;98181.41;5002979;28;20052;-83
2021/12/08 05:32:20;;;;;;;3.00;1.60;;;;;;;1.63;100.00;98178.78;4998604;28;20038;-83
2021/12/08 05:34:45;;;;;;;3.42;1.70;;;;;;;1.59;100.00;98184.16;5007531;28;20026;-83
2021/12/08 05:37:14;;;;;;;3.05;1.80;;;;;;;1.59;100.00;98190.31;5007528;28;20053;-84
2021/12/08 05:39:39;;;;;;;2.28;1.60;;;;;;;1.65;100.00;98182.22;5004298;28;20113;-84
2021/12/08 05:42:11;;;;;;;3.08;1.52;;;;;;;1.68;100.00;98189.16;5002542;28;20030;-83
2021/12/08 05:44:37;;;;;;;2.25;1.48;;;;;;;1.73;100.00;98196.94;5001147;28;20394;-85
2021/12/08 05:47:07;;;;;;;2.60;1.40;;;;;;;1.78;100.00;98195.03;5001725;28;20074;-84
2021/12/08 05:49:33;;;;;;;3.08;1.45;;;;;;;1.82;100.00;98206.34;4999828;28;20033;-86
2021/12/08 05:51:59;;;;;;;3.35;1.52;;;;;;;1.88;100.00;98201.78;4999616;28;20090;-83
2021/12/08 05:54:30;;;;;;;2.75;1.35;;;;;;;1.94;100.00;98206.00;5001591;28;20041;-84
2021/12/08 05:56:57;;;;;;;2.92;1.58;;;;;;;1.93;100.00;98220.09;4996759;28;20396;-83
2021/12/08 05:59:24;;;;;;;4.05;1.45;;;;;;;1.96;100.00;98222.63;4994039;28;20045;-83
2021/12/08 06:01:58;;;;;;;2.47;1.50;;;;;;;1.99;100.00;98224.28;4995404;28;20022;-82
2021/12/08 06:04:26;;;;;;;3.30;1.52;;;;;;;1.98;100.00;98217.31;4997883;28;20038;-84
2021/12/08 06:06:52;;;;;;;2.38;1.30;;;;;;;2.01;100.00;98217.25;4996836;28;20027;-83
2021/12/08 06:09:20;;;;;;;2.92;1.88;;;;;;;2.01;100.00;98219.88;4995722;28;20037;-83
2021/12/08 06:11:47;;;;;;;3.80;1.30;;;;;;;2.10;100.00;98210.84;4998721;28;20022;-82
2021/12/08 06:14:13;;;;;;;2.70;1.42;;;;;;;2.08;100.00;98220.56;4997354;28;20029;-85
2021/12/08 06:16:41;;;;;;;3.25;1.60;;;;;;;2.08;100.00;98213.53;4999249;28;20018;-83
2021/12/08 06:19:10;;;;;;;3.45;1.30;;;;;;;2.12;100.00;98215.16;4997426;28;20026;-85
2021/12/08 06:21:36;;;;;;;3.42;1.55;;;;;;;2.11;100.00;98213.41;4996907;28;20026;-83
2021/12/08 06:24:05;;;;;;;8.13;2.13;;;;;;;2.07;100.00;98222.31;4997434;28;20025;-84
2021/12/08 06:26:30;;;;;;;2.90;1.55;;;;;;;2.08;100.00;98218.78;4998247;28;20072;-83
2021/12/08 06:28:57;;;;;;;2.33;1.48;;;;;;;2.09;100.00;98219.63;4999181;28;20038;-84
2021/12/08 06:31:25;;;;;;;2.92;1.75;;;;;;;2.07;100.00;98227.59;4998576;28;20026;-82
2021/12/08 06:33:51;;;;;;;2.58;1.40;;;;;;;2.10;100.00;98238.03;4995319;28;20422;-83
2021/12/08 06:36:24;;;;;;;3.45;1.50;;;;;;;2.16;100.00;98244.03;4994820;28;20026;-83
2021/12/08 06:38:51;;;;;;;3.45;1.40;;;;;;;2.17;100.00;98237.84;4996354;28;20022;-83
2021/12/08 06:41:23;;;;;;;2.95;1.63;;;;;;;2.11;100.00;98245.00;5007729;28;20010;-81
2021/12/08 06:43:53;;;;;;;3.22;1.55;;;;;;;2.17;100.00;98243.09;5016088;28;20089;-85
2021/12/08 06:46:19;;;;;;;3.85;1.50;;;;;;;2.15;100.00;98240.53;5018974;28;20049;-86
2021/12/08 06:48:50;;;;;;;4.00;1.50;;;;;;;2.17;100.00;98248.38;5018884;28;20014;-85
2021/12/08 06:51:26;;;;;;;2.97;1.60;;;;;;;2.14;100.00;98251.13;5018723;28;20026;-86
2021/12/08 06:53:57;;;;;;;3.65;1.63;;;;;;;2.15;100.00;98253.69;5018840;28;20029;-86
2021/12/08 06:56:30;;;;;;;2.53;1.55;;;;;;;2.21;100.00;98260.56;5003278;28;20150;-84
2021/12/08 06:58:59;;;;;;;3.95;1.60;;;;;;;2.20;100.00;98257.06;5000129;28;20061;-85
2021/12/08 07:09:26;;;;;;;2.78;1.52;;;;;;;2.23;100.00;98264.00;5001636;28;20475;-84
2021/12/08 07:11:55;;;;;;;2.85;1.73;;;;;;;2.18;100.00;98266.78;4999434;28;20028;-85
2021/12/08 07:14:22;;;;;;;2.78;1.52;;;;;;;2.12;100.00;98273.06;4999647;28;20018;-86
2021/12/08 07:16:52;;;;;;;2.83;1.73;;;;;;;2.20;100.00;98274.63;5000848;28;20030;-86
2021/12/08 07:19:35;;;;;;;3.28;1.88;;;;;;;2.18;100.00;98276.44;5003420;28;20029;-83
2021/12/08 07:22:05;;;;;;;3.05;1.60;;;;;;;2.17;100.00;98274.72;5004793;28;20093;-84
2021/12/08 07:24:37;;;;;;;5.03;2.22;;;;;;;2.10;100.00;98263.50;5006069;28;20019;-84
2021/12/08 07:27:09;;;;;;;3.90;1.98;;;;;;;2.12;100.00;98267.81;5004964;28;20089;-84
2021/12/08 07:29:39;;;;;;;3.72;1.90;;;;;;;2.07;100.00;98272.34;5001662;28;20105;-83
2021/12/08 07:32:12;;;;;;;2.88;2.10;;;;;;;2.03;100.00;98262.81;4997330;28;20017;-84
2021/12/08 07:34:38;;;;;;;3.47;2.20;;;;;;;2.08;100.00;98266.19;5015952;28;20095;-83
2021/12/08 07:37:16;;;;;;;5.90;2.25;;;;;;;1.95;100.00;98283.22;5021093;28;20068;-86
2021/12/08 07:39:46;;;;;;;5.45;3.45;;;;;;;1.99;100.00;98282.22;5023561;28;20029;-84
2021/12/08 07:42:28;;;;;;;6.93;2.95;;;;;;;1.93;100.00;98285.03;5026984;28;20088;-86
2021/12/08 07:44:57;;;;;;;4.55;2.70;;;;;;;1.96;100.00;98282.31;5025913;28;20436;-84
2021/12/08 07:47:25;;;;;;;5.35;2.70;;;;;;;1.93;100.00;98291.16;5026542;28;20363;-85
2021/12/08 07:50:13;;;;;;;5.50;2.70;;;;;;;1.86;100.00;98293.06;5023709;28;20025;-86
2021/12/08 07:52:42;;;;;;;3.78;2.65;;;;;;;1.88;100.00;98296.53;5026232;28;20041;-85
2021/12/08 07:55:13;;;;;;;5.85;3.08;;;;;;;1.88;100.00;98298.31;5024173;28;20460;-84
2021/12/08 07:57:39;;;;;;;7.30;2.90;;;;;;;1.87;100.00;98305.34;5039734;28;20034;-85
2021/12/08 08:00:28;;;;;;;5.10;2.80;;;;;;;1.88;100.00;98322.00;5026683;28;20021;-84
2021/12/08 08:02:54;;;;;;;5.95;3.08;;;;;;;1.84;100.00;98323.84;5025463;28;20116;-84
2021/12/08 08:05:27;;;;;;;5.13;2.83;;;;;;;1.86;100.00;98326.41;5025993;28;20030;-84
2021/12/08 08:07:54;;;;;;;6.93;3.10;;;;;;;1.86;100.00;98334.31;5016944;28;20120;-84
2021/12/08 08:10:19;;;;;;;6.63;3.40;;;;;;;1.90;100.00;98325.47;5018824;28;20034;-83
2021/12/08 08:12:48;;;;;;;4.82;3.05;;;;;;;1.97;100.00;98326.16;5019847;28;20121;-83
2021/12/08 08:15:20;;;;;;;8.85;3.70;;;;;;;1.93;100.00;98335.91;5020527;28;20061;-84
2021/12/08 08:17:50;;;;;;;4.63;3.40;;;;;;;2.03;100.00;98331.25;5020376;28;20038;-84
2021/12/08 08:20:30;;;;;;;6.25;3.20;;;;;;;2.05;100.00;98334.72;5020245;28;20033;-82
2021/12/08 08:22:57;;;;;;;5.68;3.15;;;;;;;2.02;100.00;98350.59;5021887;28;20057;-84
2021/12/08 08:25:27;;;;;;;7.05;3.42;;;;;;;2.08;100.00;98349.56;5023240;28;20033;-84
2021/12/08 08:27:53;;;;;;;7.60;3.60;;;;;;;2.06;100.00;98357.50;5023717;28;20018;-85
2021/12/08 08:30:26;;;;;;;7.97;3.30;;;;;;;2.02;100.00;98350.59;5023390;28;20033;-85
2021/12/08 08:32:54;;;;;;;7.45;4.28;;;;;;;2.05;100.00;98355.78;5025406;28;20061;-84
2021/12/08 08:35:31;;;;;;;5.15;3.80;;;;;;;2.06;100.00;98357.50;5025279;28;20029;-84
2021/12/08 08:38:05;;;;;;;6.95;4.20;;;;;;;2.10;100.00;98348.63;5025587;28;20034;-84
2021/12/08 08:40:40;;;;;;;10.45;4.28;;;;;;;2.17;100.00;98353.72;5024408;28;20034;-84
2021/12/08 08:43:08;;;;;;;8.77;4.10;;;;;;;2.15;100.00;98366.06;5025396;28;20025;-84
2021/12/08 08:45:42;;;;;;;11.13;4.13;;;;;;;2.18;100.00;98358.94;5015846;28;20052;-83
2021/12/08 08:48:14;;;;;;;9.10;4.57;;;;;;;2.17;100.00;98353.72;5017291;28;20017;-84
2021/12/08 08:50:57;;;;;;;8.95;4.18;;;;;;;2.20;100.00;98361.53;5018883;28;20026;-83
2021/12/08 08:53:27;;;;;;;7.78;4.35;;;;;;;2.26;100.00;98371.03;5019340;28;20116;-84
2021/12/08 08:56:03;;;;;;;11.77;4.50;;;;;;;2.30;100.00;98381.44;5021660;28;20030;-84
2021/12/08 08:58:31;;;;;;;9.07;4.35;;;;;;;2.34;100.00;98382.25;5021774;28;20430;-83
2021/12/08 09:01:02;;;;;;;7.70;4.25;;;;;;;2.37;100.00;98389.19;5022733;28;20028;-85
2021/12/08 09:03:34;;;;;;;10.45;4.15;;;;;;;2.38;100.00;98388.28;5025089;28;20041;-85
2021/12/08 09:06:07;;;;;;;7.32;4.05;;;;;;;2.39;100.00;98392.66;5023452;28;20030;-84
2021/12/08 09:08:35;;;;;;;8.85;4.22;;;;;;;2.45;100.00;98390.69;5024534;28;20380;-84
2021/12/08 09:11:06;;;;;;;6.28;3.90;;;;;;;2.49;100.00;98390.63;5024194;28;20478;-84
2021/12/08 09:13:39;;;;;;;8.27;4.50;;;;;;;2.52;100.00;98404.59;5023337;28;20052;-84
2021/12/08 09:16:15;;;;;;;6.47;4.15;;;;;;;2.56;100.00;98395.69;5024411;28;20030;-85
2021/12/08 09:18:58;;;;;;;8.52;4.68;;;;;;;2.57;100.00;98399.19;5023194;28;20085;-85
2021/12/08 09:21:34;;;;;;;7.22;4.10;;;;;;;2.61;100.00;98399.94;5020581;28;20030;-84
2021/12/08 09:24:12;;;;;;;9.50;4.60;;;;;;;2.60;100.00;98398.25;5032187;28;20500;-83
2021/12/08 09:26:43;;;;;;;7.68;4.05;;;;;;;2.67;100.00;98402.44;5018449;28;20124;-84
2021/12/08 09:29:16;;;;;;;7.43;4.32;;;;;;;2.61;100.00;98400.81;5018496;28;20053;-84
2021/12/08 09:31:47;;;;;;;6.82;3.80;;;;;;;2.60;100.00;98403.50;5018210;28;20032;-83
2021/12/08 09:34:21;;;;;;;8.45;4.13;;;;;;;2.59;100.00;98417.59;5019411;28;20026;-85
2021/12/08 09:36:56;;;;;;;9.55;4.35;;;;;;;2.65;100.00;98417.44;5020697;28;20029;-84
2021/12/08 09:39:29;;;;;;;9.48;4.65;;;;;;;2.72;100.00;98402.28;5021635;28;20026;-85
2021/12/08 09:42:12;;;;;;;7.93;4.40;;;;;;;2.67;100.00;98399.78;5026774;28;20034;-86
2021/12/08 09:44:55;;;;;;;16.77;7.03;;;;;;;2.77;100.00;98398.63;5026062;28;20409;-85
2021/12/08 09:47:20;;;;;;;8.05;4.95;;;;;;;2.73;100.00;98412.78;5026720;28;20056;-86
2021/12/08 09:49:47;;;;;;;9.80;4.47;;;;;;;2.74;100.00;98417.16;5026730;28;20030;-84
2021/12/08 09:52:15;;;;;;;7.60;4.80;;;;;;;2.83;100.00;98405.50;5026386;28;20034;-86
2021/12/08 09:54:41;;;;;;;9.98;4.40;;;;;;;2.83;100.00;98402.00;5024881;28;20024;-85
2021/12/08 09:57:11;;;;;;;10.15;5.18;;;;;;;2.83;100.00;98415.19;5023912;28;20022;-86
2021/12/08 09:59:45;;;;;;;7.82;5.07;;;;;;;2.86;100.00;98405.38;5014812;28;20057;-85
2021/12/08 10:02:11;;;;;;;10.00;4.88;;;;;;;2.92;100.00;98403.50;5016075;28;20022;-85
2021/12/08 10:04:37;;;;;;;7.20;4.97;;;;;;;2.83;100.00;98412.53;5018387;28;20038;-84
2021/12/08 10:07:05;;;;;;;12.02;5.95;;;;;;;2.89;100.00;98407.94;5018243;28;20020;-85
2021/12/08 10:09:31;;;;;;;9.15;5.13;;;;;;;2.85;100.00;98411.59;5019155;28;20022;-83
2021/12/08 10:11:57;;;;;;;8.40;4.55;;;;;;;2.85;100.00;98416.00;5020066;28;20068;-85
2021/12/08 10:14:22;;;;;;;8.48;4.88;;;;;;;2.95;100.00;98413.94;5019010;28;20395;-85
2021/12/08 10:16:51;;;;;;;8.38;4.97;;;;;;;3.05;100.00;98411.91;5020087;28;20056;-84
2021/12/08 10:19:17;;;;;;;10.27;5.65;;;;;;;3.03;100.00;98404.06;5023768;28;20064;-86
2021/12/08 10:21:43;;;;;;;9.65;5.75;;;;;;;3.22;100.00;98406.16;5026859;28;20022;-84
2021/12/08 10:24:15;;;;;;;8.13;4.97;;;;;;;3.34;100.00;98405.78;5026825;28;20031;-84
2021/12/08 10:26:41;;;;;;;10.27;5.10;;;;;;;3.36;100.00;98397.78;5024293;28;20017;-84
2021/12/08 10:29:09;;;;;;;9.15;4.53;;;;;;;3.47;99.88;98405.38;5024742;28;20022;-85
2021/12/08 10:31:47;;;;;;;8.45;5.00;;;;;;;3.35;99.77;98390.81;5024427;28;20034;-84
2021/12/08 10:36:55;;;;;;;10.23;5.32;;;;;;;3.19;100.00;98380.72;4999927;28;20022;-85
2021/12/08 10:39:34;;;;;;;9.75;4.75;;;;;;;3.13;100.00;98387.03;4999092;28;20018;-83
2021/12/08 10:42:13;;;;;;;7.55;4.57;;;;;;;3.06;100.00;98382.88;4999832;28;20030;-85
2021/12/08 10:47:45;;;;;;;9.07;4.82;;;;;;;2.99;100.00;98382.16;5003197;28;20368;-85
2021/12/08 10:55:58;;;;;;;8.15;4.72;;;;;;;3.15;100.00;98368.53;5003359;28;20080;-83
2021/12/08 10:58:27;;;;;;;7.65;5.30;;;;;;;3.12;100.00;98377.41;5001693;28;20467;-85
2021/12/08 11:00:54;;;;;;;9.48;4.82;;;;;;;3.19;99.95;98380.72;5004057;28;20022;-85
2021/12/08 11:03:20;;;;;;;8.55;4.70;;;;;;;3.26;100.00;98385.78;5002013;28;20376;-86
2021/12/08 11:05:52;;;;;;;9.60;4.85;;;;;;;3.26;99.56;98401.63;5004939;28;20027;-83
2021/12/08 11:08:33;;;;;;;7.80;5.10;;;;;;;3.24;99.40;98394.63;5003519;28;20030;-85
2021/12/08 11:11:22;;;;;;;9.10;4.93;;;;;;;3.26;99.91;98404.25;5001711;28;20038;-85
2021/12/08 11:13:53;;;;;;;9.27;4.82;;;;;;;3.26;98.88;98404.25;4998576;28;20025;-84
2021/12/08 11:16:33;;;;;;;9.98;4.82;;;;;;;3.22;99.08;98401.72;4997729;28;20030;-85
2021/12/08 11:19:06;;;;;;;9.00;4.65;;;;;;;3.31;99.07;98389.16;4998439;28;20060;-83
2021/12/08 11:21:39;;;;;;;10.33;6.03;;;;;;;3.30;98.45;98387.44;5015859;28;20538;-84
2021/12/08 11:24:11;;;;;;;9.60;4.45;;;;;;;3.38;98.46;98388.06;5019029;28;20262;-87
2021/12/08 11:26:41;;;;;;;8.60;3.92;;;;;;;3.40;98.22;98394.13;5017944;28;20156;-86
2021/12/08 11:29:11;;;;;;;12.00;4.05;;;;;;;3.39;98.72;98402.13;5021819;28;20133;-84
2021/12/08 11:31:44;;;;;;;9.15;4.80;;;;;;;3.39;98.60;98404.75;5023730;28;20084;-83
2021/12/08 11:34:31;;;;;;;10.75;4.13;;;;;;;3.42;98.72;98413.44;5024635;28;20022;-84
2021/12/08 11:37:01;;;;;;;8.32;3.85;;;;;;;3.43;97.97;98414.28;5023575;28;20052;-83
2021/12/08 11:39:36;;;;;;;6.15;3.35;;;;;;;3.43;97.79;98422.22;5020829;28;20049;-84
2021/12/08 11:42:10;;;;;;;5.30;3.40;;;;;;;3.48;97.73;98409.72;5020644;28;20034;-82
2021/12/08 11:44:37;;;;;;;9.98;3.95;;;;;;;3.53;97.30;98407.81;5022297;28;20117;-84
2021/12/08 11:47:06;;;;;;;5.38;3.13;;;;;;;3.52;97.11;98413.16;5023596;28;20156;-82
2021/12/08 11:49:34;;;;;;;6.30;3.42;;;;;;;3.60;96.18;98400.59;5025183;28;20505;-84
2021/12/08 11:52:10;;;;;;;8.18;3.40;;;;;;;3.60;96.84;98400.59;5024068;28;20026;-83
2021/12/08 11:54:56;;;;;;;7.70;3.25;;;;;;;3.69;96.95;98402.91;5023589;28;20040;-82
2021/12/08 11:57:32;;;;;;;6.50;3.17;;;;;;;3.67;96.23;98402.13;5023370;28;20026;-83
2021/12/08 12:00:00;;;;;;;8.25;2.90;;;;;;;3.72;96.31;98411.66;5021125;28;20036;-84
2021/12/08 12:02:30;;;;;;;9.77;2.95;;;;;;;3.69;95.73;98410.84;5024486;28;20087;-82
2021/12/08 12:04:57;;;;;;;5.10;3.15;;;;;;;3.67;95.43;98417.09;5025730;28;20030;-83
2021/12/08 12:07:23;;;;;;;6.57;2.88;;;;;;;3.66;95.72;98426.78;5027361;28;20057;-82
2021/12/08 12:09:49;;;;;;;5.18;2.90;;;;;;;3.68;95.63;98422.31;5025183;28;20021;-83
2021/12/08 12:12:15;;;;;;;8.50;3.58;;;;;;;3.74;94.98;98428.28;5024547;28;20493;-83
2021/12/08 12:14:41;;;;;;;8.73;2.90;;;;;;;3.73;95.76;98426.59;5027246;28;20035;-85
2021/12/08 12:17:07;;;;;;;8.60;2.90;;;;;;;3.77;95.52;98425.56;5023826;28;20034;-84
2021/12/08 12:19:37;;;;;;;6.40;3.08;;;;;;;3.81;94.95;98416.66;5023640;28;20071;-82
2021/12/08 12:22:11;;;;;;;6.25;2.85;;;;;;;3.82;94.76;98434.19;5023400;28;20037;-84
2021/12/08 12:25:01;;;;;;;5.40;2.85;;;;;;;3.84;94.28;98432.38;5021188;28;20030;-84
2021/12/08 12:27:40;;;;;;;6.57;2.85;;;;;;;3.85;94.32;98428.81;5019118;28;20044;-85
2021/12/08 12:30:08;;;;;;;4.97;2.60;;;;;;;3.85;94.72;98430.59;5018276;28;20026;-85
2021/12/08 12:32:38;;;;;;;5.22;2.50;;;;;;;3.80;95.69;98423.69;5018063;28;20132;-85
2021/12/08 12:35:14;;;;;;;7.38;3.05;;;;;;;3.82;94.75;98428.91;5019058;28;20033;-85
2021/12/08 12:37:41;;;;;;;10.48;3.13;;;;;;;3.85;94.59;98427.97;5019593;28;20022;-85
2021/12/08 12:40:10;;;;;;;8.73;3.78;;;;;;;3.85;95.25;98420.91;5020592;28;20129;-85